createdAt,value
2023-06-23T00:03:24.044Z,98749.34
2023-06-23T00:08:26.511Z,98825.97
2023-06-23T00:13:28.936Z,98785.69
2023-06-23T00:18:32.866Z,98754.94
2023-06-23T00:23:36.306Z,98809.09
2023-06-23T00:28:38.930Z,98791.06
2023-06-23T00:33:43.542Z,98789.47
2023-06-23T00:38:46.239Z,98789.66
2023-06-23T00:43:54.664Z,98776.53
2023-06-23T00:48:57.220Z,98779.53
2023-06-23T00:53:59.966Z,98802.75
2023-06-23T00:59:04.100Z,98761.63
2023-06-23T01:04:06.683Z,98740.66
2023-06-23T01:09:17.099Z,98783.59
2023-06-23T01:14:24.933Z,98810.75
2023-06-23T01:20:26.102Z,98809.72
2023-06-23T01:25:49.092Z,98799.22
2023-06-23T01:30:56.236Z,98806.03
2023-06-23T01:36:09.890Z,98814.88
2023-06-23T01:41:25.693Z,98731.34
2023-06-23T01:46:36.498Z,98770.25
2023-06-23T01:51:44.652Z,98811.59
2023-06-23T01:56:48.175Z,98791.84
2023-06-23T02:01:52.027Z,98790.16
2023-06-23T02:06:55.219Z,98729.72
2023-06-23T02:11:59.098Z,98793.41
2023-06-23T02:17:03.141Z,98799.66
2023-06-23T02:22:10.194Z,98769.84
2023-06-23T02:27:13.780Z,98805.97
2023-06-23T02:32:18.658Z,98792.34
2023-06-23T02:37:25.060Z,98811.25
2023-06-23T02:42:34.748Z,98766.41
2023-06-23T02:47:39.408Z,98804.28
2023-06-23T02:52:46.529Z,98734.38
2023-06-23T02:57:51.468Z,98797.38
2023-06-23T03:02:59.035Z,98769.75
2023-06-23T03:08:02.885Z,98774.03
2023-06-23T03:13:05.438Z,98743.63
2023-06-23T03:18:18.735Z,98790.94
2023-06-23T03:23:26.640Z,98568.75
2023-06-23T03:28:30.932Z,98739.72
2023-06-23T03:33:37.183Z,98739.53
2023-06-23T03:38:45.986Z,98779.97
2023-06-23T03:43:52.493Z,98781.97
2023-06-23T03:48:58.056Z,98780.00
2023-06-23T03:54:02.060Z,98756.66
2023-06-23T03:59:05.292Z,98721.50
2023-06-23T04:04:09.253Z,98748.88
2023-06-23T04:09:12.104Z,98735.22
2023-06-23T04:14:15.323Z,98771.03
2023-06-23T04:19:19.506Z,98777.97
2023-06-23T04:24:23.078Z,98740.03
2023-06-23T04:29:27.448Z,98726.03
2023-06-23T04:34:30.141Z,98772.66
2023-06-23T04:39:48.931Z,98752.47
2023-06-23T04:44:54.805Z,98701.84
2023-06-23T04:50:00.264Z,98729.16
2023-06-23T04:55:04.531Z,98751.72
2023-06-23T05:00:09.178Z,98690.69
2023-06-23T05:05:12.622Z,98733.72
2023-06-23T05:10:15.310Z,98695.09
2023-06-23T05:15:19.418Z,98731.09
2023-06-23T05:20:22.671Z,98673.31
2023-06-23T05:25:31.494Z,98723.16
2023-06-23T05:30:34.305Z,98740.38
2023-06-23T05:35:38.671Z,98737.34
2023-06-23T05:40:41.332Z,98736.38
2023-06-23T05:45:44.506Z,98748.34
2023-06-23T05:50:49.006Z,98729.19
2023-06-23T05:56:02.332Z,98709.25
2023-06-23T06:01:09.677Z,98611.88
2023-06-23T06:06:12.937Z,98714.84
2023-06-23T06:11:18.361Z,98687.09
2023-06-23T06:16:21.324Z,98705.19
2023-06-23T06:21:24.194Z,98599.41
2023-06-23T06:26:27.119Z,98707.34
2023-06-23T06:31:30.693Z,98694.16
2023-06-23T06:36:34.481Z,98720.91
2023-06-23T06:41:37.672Z,98716.41
2023-06-23T06:46:42.228Z,98706.22
2023-06-23T06:51:45.782Z,98727.84
2023-06-23T06:56:48.256Z,98723.31
2023-06-23T07:01:51.230Z,98699.09
2023-06-23T07:06:55.328Z,98709.06
2023-06-23T07:12:00.859Z,98617.75
2023-06-23T07:17:03.368Z,98698.69
2023-06-23T07:22:06.274Z,98635.47
2023-06-23T07:27:09.715Z,98705.19
2023-06-23T07:32:13.208Z,98691.56
2023-06-23T07:37:15.902Z,98612.16
2023-06-23T07:42:18.407Z,98654.69
2023-06-23T07:47:21.139Z,98653.84
2023-06-23T07:52:23.662Z,98716.72
2023-06-23T07:57:26.786Z,98680.09
2023-06-23T08:02:29.345Z,98627.66
2023-06-23T08:07:32.032Z,98723.88
2023-06-23T08:12:34.781Z,98681.75
2023-06-23T08:17:37.516Z,98700.66
2023-06-23T08:22:41.996Z,98722.19
2023-06-23T08:27:44.629Z,98635.34
2023-06-23T08:32:47.092Z,98658.53
2023-06-23T08:37:49.829Z,98626.28
2023-06-23T08:42:52.369Z,98604.41
2023-06-23T08:47:58.264Z,98718.72
2023-06-23T08:53:01.050Z,98642.53
2023-06-23T08:58:04.095Z,98688.75
2023-06-23T09:03:06.775Z,98709.47
2023-06-23T09:08:10.393Z,98574.28
2023-06-23T09:13:24.674Z,98630.28
2023-06-23T09:18:27.217Z,98632.88
2023-06-23T09:23:35.123Z,98613.09
2023-06-23T09:28:38.580Z,98701.59
2023-06-23T09:33:49.400Z,98672.66
2023-06-23T09:38:54.246Z,98605.75
2023-06-23T09:43:58.965Z,98707.03
2023-06-23T09:49:02.171Z,98662.78
2023-06-23T09:54:08.041Z,98738.84
2023-06-23T09:59:10.508Z,98713.66
2023-06-23T10:04:13.101Z,98707.03
2023-06-23T10:09:16.672Z,98725.66
2023-06-23T10:14:19.892Z,98674.94
2023-06-23T10:19:22.629Z,98747.94
2023-06-23T10:24:25.325Z,98713.53
2023-06-23T10:29:29.170Z,98750.22
2023-06-23T10:34:33.273Z,98751.03
2023-06-23T10:39:37.313Z,98732.69
2023-06-23T10:44:43.028Z,98752.34
2023-06-23T10:49:46.648Z,98703.88
2023-06-23T10:54:49.304Z,98678.44
2023-06-23T11:00:07.419Z,98748.78
2023-06-23T11:05:18.162Z,98727.25
2023-06-23T11:10:22.094Z,98680.47
2023-06-23T11:15:26.901Z,98743.06
2023-06-23T11:20:31.432Z,98736.84
2023-06-23T11:25:51.286Z,98715.16
2023-06-23T11:31:05.404Z,98658.38
2023-06-23T11:36:17.164Z,98735.22
2023-06-23T11:41:27.324Z,98644.50
2023-06-23T11:46:34.367Z,98718.72
2023-06-23T11:51:36.980Z,98643.53
2023-06-23T11:56:43.011Z,98711.09
2023-06-23T12:01:45.690Z,98694.81
2023-06-23T12:06:48.943Z,98682.72
2023-06-23T12:11:53.127Z,98706.47
2023-06-23T12:17:12.782Z,98704.69
2023-06-23T12:22:19.750Z,98698.94
2023-06-23T12:27:26.585Z,98664.97
2023-06-23T12:32:32.550Z,98597.44
2023-06-23T12:37:47.064Z,98701.72
2023-06-23T12:42:49.644Z,98673.09
2023-06-23T12:47:58.887Z,98700.47
2023-06-23T12:53:01.477Z,98698.78
2023-06-23T12:58:04.091Z,98627.28
2023-06-23T13:03:08.679Z,98670.56
2023-06-23T13:08:15.113Z,98650.81
2023-06-23T13:13:17.666Z,98664.41
2023-06-23T13:18:20.203Z,98601.91
2023-06-23T13:23:22.771Z,98590.53
2023-06-23T13:28:25.404Z,98683.97
2023-06-23T13:33:27.979Z,98510.69
2023-06-23T13:38:30.434Z,98485.22
2023-06-23T13:43:32.902Z,98651.03
2023-06-23T13:48:35.473Z,98673.44
2023-06-23T13:53:39.989Z,98394.69
2023-06-23T13:58:42.482Z,98644.16
2023-06-23T14:03:45.164Z,98643.75
2023-06-23T14:08:49.931Z,98598.16
2023-06-23T14:13:52.581Z,98687.25
2023-06-23T14:18:55.223Z,98692.97
2023-06-23T14:23:57.708Z,98693.47
2023-06-23T14:29:00.345Z,98609.31
2023-06-23T14:34:04.712Z,98670.19
2023-06-23T14:39:08.662Z,98670.84
2023-06-23T14:44:11.095Z,98672.75
2023-06-23T14:49:13.679Z,98693.06
2023-06-23T14:54:16.171Z,98703.25
2023-06-23T14:59:18.712Z,98680.69
2023-06-23T15:04:21.256Z,98616.66
2023-06-23T15:09:23.829Z,98690.13
2023-06-23T15:14:26.393Z,98674.97
2023-06-23T15:19:28.869Z,98645.66
2023-06-23T15:24:31.426Z,98672.41
2023-06-23T15:29:33.906Z,98609.31
2023-06-23T15:34:36.445Z,98688.66
2023-06-23T15:39:42.280Z,98630.09
2023-06-23T15:44:45.885Z,98670.44
2023-06-23T15:49:48.584Z,98646.25
2023-06-23T15:54:51.409Z,98705.69
2023-06-23T15:59:54.010Z,98673.41
2023-06-23T16:04:56.680Z,98673.41
2023-06-23T16:09:59.345Z,98639.47
2023-06-23T16:15:01.768Z,98728.16
2023-06-23T16:20:08.042Z,98655.94
2023-06-23T16:25:10.479Z,98682.31
2023-06-23T16:30:12.952Z,98677.34
2023-06-23T16:35:15.425Z,98680.94
2023-06-23T16:40:17.936Z,98725.03
2023-06-23T16:45:20.369Z,98701.69
2023-06-23T16:50:22.889Z,98717.22
2023-06-23T16:55:25.280Z,98632.34
2023-06-23T17:00:29.563Z,98654.25
2023-06-23T17:05:32.157Z,98697.00
2023-06-23T17:10:34.913Z,98691.41
2023-06-23T17:15:37.440Z,98583.34
2023-06-23T17:20:39.865Z,98678.69
2023-06-23T17:25:42.428Z,98699.63
2023-06-23T17:30:46.159Z,98682.97
2023-06-23T17:35:48.677Z,98730.50
2023-06-23T17:40:51.163Z,98712.06
2023-06-23T17:45:53.568Z,98667.53
2023-06-23T17:50:56.016Z,98701.56
2023-06-23T17:56:00.746Z,98635.63
2023-06-23T18:01:04.714Z,98634.50
2023-06-23T18:06:07.432Z,98721.00
2023-06-23T18:11:10.405Z,98643.59
2023-06-23T18:16:12.930Z,98604.69
2023-06-23T18:21:17.725Z,98688.91
2023-06-23T18:26:20.321Z,98721.09
2023-06-23T18:31:22.857Z,98685.19
2023-06-23T18:36:25.386Z,98731.09
2023-06-23T18:41:27.890Z,98644.47
2023-06-23T18:46:31.956Z,98723.41
2023-06-23T18:51:39.411Z,98673.81
2023-06-23T18:56:42.315Z,98721.00
2023-06-23T19:01:44.843Z,98639.47
2023-06-23T19:06:47.453Z,98671.94
2023-06-23T19:11:50.003Z,98654.06
2023-06-23T19:16:52.492Z,98672.41
2023-06-23T19:21:57.585Z,98700.97
2023-06-23T19:26:59.980Z,98624.44
2023-06-23T19:32:02.676Z,98682.22
2023-06-23T19:37:05.628Z,98665.84
2023-06-23T19:42:08.487Z,98683.16
2023-06-23T19:47:11.252Z,98637.69
2023-06-23T19:52:16.411Z,98647.91
2023-06-23T19:57:18.918Z,98621.44
2023-06-23T20:02:22.083Z,98630.75
2023-06-23T20:07:24.929Z,98685.97
2023-06-23T20:12:27.585Z,98683.50
2023-06-23T20:17:30.204Z,98636.28
2023-06-23T20:22:32.709Z,98640.66
2023-06-23T20:27:35.224Z,98650.09
2023-06-23T20:32:39.860Z,98584.91
2023-06-23T20:37:42.816Z,98615.09
2023-06-23T20:42:45.226Z,98668.56
2023-06-23T20:47:48.108Z,98586.06
2023-06-23T20:52:55.895Z,98646.47
2023-06-23T20:57:58.301Z,98659.50
2023-06-23T21:03:00.817Z,98573.09
2023-06-23T21:08:03.294Z,98603.41
2023-06-23T21:13:05.866Z,98639.44
2023-06-23T21:18:08.537Z,98656.16
2023-06-23T21:23:13.244Z,98593.63
2023-06-23T21:28:16.633Z,98635.72
2023-06-23T21:33:19.090Z,98643.78
2023-06-23T21:38:21.626Z,98620.88
2023-06-23T21:43:24.037Z,98638.06
2023-06-23T21:48:29.119Z,98609.72
2023-06-23T21:53:31.548Z,98628.00
2023-06-23T21:58:34.397Z,98629.19
2023-06-23T22:03:38.305Z,98631.91
2023-06-23T22:08:40.905Z,98650.25
2023-06-23T22:13:43.276Z,98604.72
2023-06-23T22:18:49.781Z,98602.44
2023-06-23T22:23:52.886Z,98607.91
2023-06-23T22:28:55.956Z,98645.09
2023-06-23T22:33:58.390Z,98633.44
2023-06-23T22:39:01.057Z,98626.63
2023-06-23T22:44:03.516Z,98607.16
2023-06-23T22:49:07.470Z,98616.94
2023-06-23T22:54:09.843Z,98601.56
2023-06-23T22:59:12.213Z,98580.63
2023-06-23T23:04:14.957Z,98556.91
2023-06-23T23:09:17.550Z,98623.44
2023-06-23T23:14:20.412Z,98631.66
2023-06-23T23:19:23.010Z,98592.97
2023-06-23T23:24:25.368Z,98650.28
2023-06-23T23:29:27.992Z,98607.28
2023-06-23T23:34:33.613Z,98613.91
2023-06-23T23:39:36.175Z,98663.19
2023-06-23T23:44:38.567Z,98668.22
2023-06-23T23:49:41.027Z,98665.63
2023-06-23T23:54:43.396Z,98618.16
2023-06-23T23:59:46.283Z,98650.53
